KBKE/BKE METAR and TAF weather

Enter ICAO airport designator
Station Type Date Time Source
KBKE METAR 2018/10/21 05:53 UTC NOAA

KBKE 210553Z AUTO 00000KT 10SM CLR 02/M01 A3014 RMK AO2 SLP210 T00171006 10200 20017 52001


Station Type Date Time Source
KBKE Decoded METAR 2018/10/21 05:53 UTC NOAA

BAKER MUNICIPAL AIRPORT, OR, United States (KBKE) 44-50N 117-49W 1024M
Oct 21, 2018 - 01:53 AM EDT / 2018.10.21 0553 UTC
Wind: Calm:0
Visibility: 10 mile(s):0
Sky conditions: clear
Temperature: 35.1 F (1.7 C)
Dew Point: 30.9 F (-0.6 C)
Relative Humidity: 84%
Pressure (altimeter): 30.14 in. Hg (1020 hPa)
Pressure tendency: 0.00 inches (0.1 hPa) higher than three hours ago
ob: KBKE 210553Z AUTO 00000KT 10SM CLR 02/M01 A3014 RMK AO2 SLP210 T00171006 10200 20017 52001
cycle: 6

Station Type Date Time Source
KBKE TAF 2018/10/21 06:22 UTC NOAA

TAF KBKE 210520Z 2106/2206 12003KT P6SM SKC


Example: see airport list